Time;durP1;ratioP1;P1;durP2;ratioP2;P2;SDS_P1;SDS_P2;PMS_P1;PMS_P2;Temp;Humidity;BMP_temperature;BMP_pressure;BME280_temperature;BME280_humidity;BME280_pressure;Samples;Min_cycle;Max_cycle;Signal;HPM_P1;HPM_P2
2021/08/20 00:00:29;;;;;;;3.63;3.43;;;17.70;99.90;;;;;;5037760;28;20232;-74
2021/08/20 00:02:55;;;;;;;4.10;3.80;;;17.70;99.90;;;;;;5043952;28;20246;-74
2021/08/20 00:05:22;;;;;;;4.00;3.70;;;17.70;99.90;;;;;;5046153;28;20216;-73
2021/08/20 00:07:49;;;;;;;3.90;3.60;;;17.70;99.90;;;;;;5047861;28;20236;-74
2021/08/20 00:10:16;;;;;;;4.57;4.20;;;17.80;99.90;;;;;;5047561;28;20208;-74
2021/08/20 00:12:43;;;;;;;3.53;3.33;;;17.70;99.90;;;;;;5047262;28;20473;-74
2021/08/20 00:15:10;;;;;;;3.60;3.40;;;17.80;99.90;;;;;;5047323;28;20215;-74
2021/08/20 00:17:38;;;;;;;3.87;3.63;;;17.80;99.90;;;;;;5047319;28;20219;-74
2021/08/20 00:20:06;;;;;;;4.73;4.20;;;17.80;99.90;;;;;;5047056;28;20207;-74
2021/08/20 00:22:33;;;;;;;4.17;3.90;;;17.70;99.90;;;;;;5047579;28;20262;-74
2021/08/20 00:25:00;;;;;;;3.90;3.50;;;17.70;99.90;;;;;;5046847;28;20306;-74
2021/08/20 00:27:26;;;;;;;4.13;3.83;;;17.80;99.90;;;;;;5047184;28;20212;-73
2021/08/20 00:29:53;;;;;;;4.10;3.83;;;17.80;99.90;;;;;;5047453;28;20231;-73
2021/08/20 00:32:19;;;;;;;3.90;3.60;;;17.80;99.90;;;;;;5047519;28;20212;-73
2021/08/20 00:34:47;;;;;;;4.20;3.90;;;17.80;99.90;;;;;;5046904;28;20212;-73
2021/08/20 00:37:14;;;;;;;4.50;4.10;;;17.80;99.90;;;;;;5046633;28;20289;-73
2021/08/20 00:39:42;;;;;;;4.40;4.10;;;17.90;99.90;;;;;;5046875;28;20626;-73
2021/08/20 00:42:09;;;;;;;3.97;3.77;;;17.80;99.90;;;;;;5046606;28;20212;-73
2021/08/20 00:44:35;;;;;;;4.30;4.00;;;17.80;99.90;;;;;;5046669;28;20219;-73
2021/08/20 00:47:03;;;;;;;4.23;3.93;;;17.80;99.90;;;;;;5046316;28;20228;-74
2021/08/20 00:49:30;;;;;;;3.87;3.63;;;17.80;99.90;;;;;;5046140;28;20705;-73
2021/08/20 00:51:58;;;;;;;4.00;3.80;;;17.70;99.90;;;;;;5046632;28;20305;-74
2021/08/20 00:54:25;;;;;;;3.83;3.53;;;17.70;99.90;;;;;;5046812;28;20664;-74
2021/08/20 00:56:51;;;;;;;4.23;3.93;;;17.70;99.90;;;;;;5046704;28;20228;-74
2021/08/20 00:59:18;;;;;;;4.27;3.97;;;17.60;99.90;;;;;;5041052;28;20870;-73
2021/08/20 01:01:45;;;;;;;4.37;4.07;;;17.70;99.90;;;;;;5026674;28;20426;-74
2021/08/20 01:04:12;;;;;;;4.00;3.70;;;17.70;99.90;;;;;;5026284;28;20287;-74
2021/08/20 01:06:40;;;;;;;4.00;3.70;;;17.80;99.90;;;;;;5026692;28;20204;-74
2021/08/20 01:09:09;;;;;;;4.03;3.73;;;17.80;99.90;;;;;;5026369;28;20211;-73
2021/08/20 01:11:37;;;;;;;4.70;4.10;;;17.80;99.90;;;;;;5026559;28;20274;-74
2021/08/20 01:14:04;;;;;;;5.13;4.63;;;17.80;99.90;;;;;;5026344;28;20205;-75
2021/08/20 01:16:31;;;;;;;4.00;3.70;;;17.80;99.90;;;;;;5025161;28;20628;-74
2021/08/20 01:18:58;;;;;;;3.80;3.60;;;17.70;99.90;;;;;;5025958;28;20758;-74
2021/08/20 01:21:26;;;;;;;3.93;3.60;;;17.80;99.90;;;;;;5026299;28;20213;-74
2021/08/20 01:23:54;;;;;;;5.07;4.13;;;17.80;99.90;;;;;;5026698;28;20651;-74
2021/08/20 01:26:23;;;;;;;3.40;3.20;;;17.70;99.90;;;;;;5026191;28;20209;-74
2021/08/20 01:28:49;;;;;;;3.77;3.57;;;17.70;99.90;;;;;;5026146;28;20283;-73
2021/08/20 01:31:18;;;;;;;3.47;3.27;;;17.70;99.90;;;;;;5026014;28;20271;-73
2021/08/20 01:33:45;;;;;;;3.70;3.50;;;17.80;99.90;;;;;;5025624;28;20215;-73
2021/08/20 01:36:11;;;;;;;3.50;3.23;;;17.70;99.90;;;;;;5025463;28;20228;-73
2021/08/20 01:38:49;;;;;;;4.47;4.17;;;17.60;99.90;;;;;;5025871;28;20266;-74
2021/08/20 01:41:16;;;;;;;3.57;3.33;;;17.60;99.90;;;;;;5025629;28;20477;-74
2021/08/20 01:43:44;;;;;;;3.53;3.33;;;17.60;99.90;;;;;;5026075;28;20670;-71
2021/08/20 01:46:11;;;;;;;3.37;3.17;;;17.70;99.90;;;;;;5039269;28;20223;-71
2021/08/20 01:48:44;;;;;;;3.80;3.50;;;17.70;99.90;;;;;;5040065;28;20314;-71
2021/08/20 01:51:12;;;;;;;3.20;3.00;;;17.70;99.90;;;;;;5029188;28;20200;-71
2021/08/20 01:53:39;;;;;;;3.33;3.10;;;17.60;99.90;;;;;;5038081;28;20295;-68
2021/08/20 01:56:06;;;;;;;3.70;3.50;;;17.60;99.90;;;;;;5031441;28;20232;-69
2021/08/20 01:58:32;;;;;;;3.30;3.10;;;17.60;99.90;;;;;;5039661;28;20203;-69
2021/08/20 02:01:00;;;;;;;3.50;3.30;;;17.60;99.90;;;;;;5039884;28;20192;-69
2021/08/20 02:03:27;;;;;;;3.77;3.50;;;17.70;99.90;;;;;;5031535;28;20205;-69
2021/08/20 02:05:53;;;;;;;3.20;3.00;;;17.70;99.90;;;;;;5028864;28;20213;-70
2021/08/20 02:08:20;;;;;;;3.60;3.30;;;17.70;99.90;;;;;;5028784;28;20297;-70
2021/08/20 02:10:47;;;;;;;3.40;3.20;;;17.80;99.90;;;;;;5028971;28;20204;-70
2021/08/20 02:13:13;;;;;;;3.43;3.23;;;17.80;99.90;;;;;;5028906;28;20611;-70
2021/08/20 02:15:40;;;;;;;3.43;3.23;;;17.70;99.90;;;;;;5028779;28;20213;-70
2021/08/20 02:18:08;;;;;;;3.47;3.27;;;17.70;99.90;;;;;;5028881;28;20201;-70
2021/08/20 02:20:40;;;;;;;3.60;3.40;;;17.80;99.90;;;;;;5029031;28;20259;-70
2021/08/20 02:23:06;;;;;;;3.67;3.37;;;17.80;99.90;;;;;;5028406;28;20239;-70
2021/08/20 02:25:33;;;;;;;3.23;3.03;;;17.80;99.90;;;;;;5028746;28;20278;-70
2021/08/20 02:28:00;;;;;;;3.53;3.27;;;17.90;99.90;;;;;;5028385;28;20205;-71
2021/08/20 02:30:27;;;;;;;3.50;3.30;;;17.90;99.90;;;;;;5028521;28;21025;-70
2021/08/20 02:32:54;;;;;;;3.20;3.03;;;18.00;99.90;;;;;;5028633;28;20630;-70
2021/08/20 02:35:22;;;;;;;3.77;3.57;;;18.00;99.90;;;;;;5029052;28;20209;-70
2021/08/20 02:37:49;;;;;;;3.63;3.43;;;18.00;99.90;;;;;;5037134;28;20270;-70
2021/08/20 02:40:16;;;;;;;3.70;3.40;;;18.00;99.90;;;;;;5037963;28;20212;-70
2021/08/20 02:42:42;;;;;;;3.90;3.60;;;18.00;99.90;;;;;;5047013;28;20236;-70
2021/08/20 02:45:10;;;;;;;3.57;3.27;;;18.10;99.90;;;;;;5028348;28;20314;-70
2021/08/20 02:47:37;;;;;;;3.47;3.20;;;18.10;99.90;;;;;;5028375;28;20255;-70
2021/08/20 02:50:04;;;;;;;3.30;3.13;;;18.10;99.90;;;;;;5035874;28;20269;-70
2021/08/20 02:52:32;;;;;;;3.70;3.33;;;18.10;99.90;;;;;;5047533;28;20200;-70
2021/08/20 02:54:59;;;;;;;3.63;3.43;;;18.10;99.90;;;;;;5048647;28;20232;-70
2021/08/20 02:57:28;;;;;;;3.47;3.27;;;18.10;99.90;;;;;;5048280;28;20317;-70
2021/08/20 02:59:55;;;;;;;3.43;3.23;;;18.10;99.90;;;;;;5047902;28;20314;-70
2021/08/20 03:02:21;;;;;;;3.73;3.53;;;18.20;99.90;;;;;;5048337;28;20235;-70
2021/08/20 03:04:48;;;;;;;3.30;3.10;;;18.10;99.90;;;;;;5048389;28;20292;-70
2021/08/20 03:07:15;;;;;;;3.83;3.53;;;18.10;99.90;;;;;;5048103;28;20239;-70
2021/08/20 03:09:43;;;;;;;3.73;3.53;;;18.10;99.90;;;;;;5047966;28;20273;-71
2021/08/20 03:12:10;;;;;;;3.50;3.30;;;18.20;99.90;;;;;;5047796;28;20567;-70
2021/08/20 03:14:36;;;;;;;3.97;3.67;;;18.20;99.90;;;;;;5048402;28;20274;-70
2021/08/20 03:17:03;;;;;;;3.57;3.37;;;18.10;99.90;;;;;;5048386;28;20228;-70
2021/08/20 03:19:30;;;;;;;3.70;3.50;;;18.10;99.90;;;;;;5047729;28;20285;-70
2021/08/20 03:21:57;;;;;;;3.70;3.50;;;18.10;99.90;;;;;;5048005;28;20255;-70
2021/08/20 03:24:23;;;;;;;3.43;3.23;;;18.10;99.90;;;;;;5048250;28;20278;-70
2021/08/20 03:26:52;;;;;;;4.40;4.10;;;18.10;99.90;;;;;;5047805;28;20789;-70
2021/08/20 03:29:18;;;;;;;3.83;3.63;;;18.00;99.90;;;;;;5048296;28;20231;-70
2021/08/20 03:31:45;;;;;;;4.00;3.70;;;18.00;99.90;;;;;;5048060;28;20235;-70
2021/08/20 03:34:11;;;;;;;4.10;3.70;;;18.00;99.90;;;;;;5047082;28;20730;-71
2021/08/20 03:36:38;;;;;;;3.90;3.70;;;18.00;99.90;;;;;;5047466;28;20720;-69
2021/08/20 03:39:05;;;;;;;3.63;3.40;;;18.00;99.90;;;;;;5048586;28;20204;-69
2021/08/20 03:41:31;;;;;;;4.50;4.20;;;18.10;99.90;;;;;;5051916;28;20262;-69
2021/08/20 03:44:00;;;;;;;3.97;3.73;;;18.10;99.90;;;;;;5034992;28;20204;-69
2021/08/20 03:46:26;;;;;;;4.50;4.13;;;18.10;99.90;;;;;;5031586;28;20286;-69
2021/08/20 03:48:53;;;;;;;4.50;4.20;;;18.10;99.90;;;;;;5031769;28;20267;-69
2021/08/20 03:51:19;;;;;;;4.67;4.20;;;18.10;99.90;;;;;;5031544;28;20204;-70
2021/08/20 03:53:46;;;;;;;4.27;3.97;;;18.10;99.90;;;;;;5031757;28;20213;-70
2021/08/20 03:56:13;;;;;;;5.93;4.57;;;18.10;99.90;;;;;;5031369;28;20212;-70
2021/08/20 03:58:40;;;;;;;4.83;4.43;;;18.10;99.90;;;;;;5031574;28;20249;-70
2021/08/20 04:01:08;;;;;;;4.93;4.53;;;17.80;99.90;;;;;;5031586;28;20229;-70
2021/08/20 04:03:35;;;;;;;5.77;5.17;;;17.80;99.90;;;;;;5031375;28;20279;-69
2021/08/20 04:06:01;;;;;;;5.83;5.40;;;17.80;99.90;;;;;;5031465;28;20209;-69
2021/08/20 04:08:29;;;;;;;6.53;5.00;;;17.80;99.90;;;;;;5031016;28;20213;-69
2021/08/20 04:10:56;;;;;;;5.80;5.20;;;17.80;99.90;;;;;;5031519;28;20658;-69
2021/08/20 04:13:22;;;;;;;5.60;5.10;;;17.80;99.90;;;;;;5031297;28;20258;-70
2021/08/20 04:15:49;;;;;;;5.30;4.90;;;17.80;99.90;;;;;;5031321;28;20208;-69
2021/08/20 04:18:17;;;;;;;5.97;5.30;;;17.80;99.90;;;;;;5030739;28;20330;-69
2021/08/20 04:20:43;;;;;;;5.10;4.70;;;17.80;99.90;;;;;;5031143;28;20259;-69
2021/08/20 04:23:10;;;;;;;5.20;4.80;;;17.80;99.90;;;;;;5030549;28;20266;-69
2021/08/20 04:25:37;;;;;;;5.30;4.90;;;17.80;99.90;;;;;;5030706;28;20294;-69
2021/08/20 04:28:04;;;;;;;5.63;5.13;;;17.80;99.90;;;;;;5031074;28;20204;-69
2021/08/20 04:30:31;;;;;;;5.80;5.30;;;17.80;99.90;;;;;;5030749;28;20286;-69
2021/08/20 04:32:58;;;;;;;5.23;4.93;;;17.80;99.90;;;;;;5030864;28;20213;-69
2021/08/20 04:35:28;;;;;;;5.63;5.23;;;17.80;99.90;;;;;;5030505;28;20663;-69
2021/08/20 04:37:55;;;;;;;5.80;5.10;;;17.80;99.90;;;;;;5030608;28;20239;-69
2021/08/20 04:40:22;;;;;;;6.10;5.50;;;17.80;99.90;;;;;;5030121;28;21026;-69
2021/08/20 04:42:49;;;;;;;5.50;5.10;;;17.80;99.90;;;;;;5030633;28;20205;-69
2021/08/20 04:45:16;;;;;;;5.97;4.90;;;17.80;99.90;;;;;;5030044;28;20695;-69
2021/08/20 04:47:43;;;;;;;5.30;4.90;;;17.80;99.90;;;;;;5030629;28;20233;-69
2021/08/20 04:50:11;;;;;;;5.13;4.73;;;17.80;99.90;;;;;;5030172;28;20208;-69
2021/08/20 04:52:39;;;;;;;6.00;5.53;;;17.80;99.90;;;;;;5030670;28;20213;-69
2021/08/20 04:55:06;;;;;;;5.60;5.07;;;17.80;99.90;;;;;;5030566;28;20216;-69
2021/08/20 04:57:33;;;;;;;5.33;4.93;;;17.80;99.90;;;;;;5029931;28;20741;-69
2021/08/20 04:59:59;;;;;;;5.30;4.80;;;17.80;99.90;;;;;;5030172;28;20264;-69
2021/08/20 05:02:27;;;;;;;5.67;5.20;;;17.80;99.90;;;;;;5030413;28;20251;-69
2021/08/20 05:04:54;;;;;;;5.17;4.77;;;17.80;99.90;;;;;;5030253;28;20252;-69
2021/08/20 05:07:21;;;;;;;6.97;5.40;;;17.80;99.90;;;;;;5030224;28;20262;-69
2021/08/20 05:09:49;;;;;;;5.87;5.37;;;17.80;99.90;;;;;;5030098;28;20574;-69
2021/08/20 05:12:15;;;;;;;5.80;4.97;;;17.80;99.90;;;;;;5030026;28;20212;-69
2021/08/20 05:14:42;;;;;;;6.10;5.60;;;17.90;99.90;;;;;;5030143;28;20209;-70
2021/08/20 05:17:09;;;;;;;6.43;5.83;;;17.90;99.90;;;;;;5030258;28;20239;-70
2021/08/20 05:19:35;;;;;;;7.27;5.83;;;17.80;99.90;;;;;;5029883;28;20208;-70
2021/08/20 05:22:02;;;;;;;7.17;5.80;;;17.80;99.90;;;;;;5029924;28;20209;-71
2021/08/20 05:24:29;;;;;;;6.47;5.80;;;17.80;99.90;;;;;;5029794;28;20205;-72
2021/08/20 05:26:57;;;;;;;6.13;5.57;;;17.80;99.90;;;;;;5029964;28;20282;-70
2021/08/20 05:29:23;;;;;;;5.97;5.57;;;17.80;99.90;;;;;;5029730;28;20205;-68
2021/08/20 05:31:50;;;;;;;6.90;5.93;;;17.90;99.90;;;;;;5029745;28;20208;-69
2021/08/20 05:34:18;;;;;;;5.67;5.27;;;17.90;99.90;;;;;;5029235;28;20216;-70
2021/08/20 05:36:44;;;;;;;6.20;5.70;;;17.90;99.90;;;;;;5029764;28;20217;-70
2021/08/20 05:39:11;;;;;;;5.63;5.13;;;17.90;99.90;;;;;;5029399;28;20286;-70
2021/08/20 05:41:37;;;;;;;6.07;5.50;;;17.90;99.90;;;;;;5029457;28;20259;-70
2021/08/20 05:44:06;;;;;;;6.33;5.73;;;17.90;99.90;;;;;;5029509;28;20270;-69
2021/08/20 05:46:32;;;;;;;6.00;5.60;;;17.90;99.90;;;;;;5029284;28;20630;-69
2021/08/20 05:49:03;;;;;;;5.50;5.10;;;17.90;99.90;;;;;;5029307;28;20228;-69
2021/08/20 05:51:30;;;;;;;5.97;5.43;;;17.80;99.90;;;;;;5029175;28;20661;-70
2021/08/20 05:53:56;;;;;;;5.70;5.30;;;17.70;99.90;;;;;;5029503;28;20283;-70
2021/08/20 05:56:23;;;;;;;6.47;5.50;;;17.70;99.90;;;;;;5029242;28;20291;-69
2021/08/20 05:58:52;;;;;;;5.73;5.30;;;17.70;99.90;;;;;;5028921;28;20306;-69
2021/08/20 06:01:20;;;;;;;6.27;5.63;;;17.60;99.90;;;;;;5029001;28;20212;-70
2021/08/20 06:03:46;;;;;;;5.70;5.30;;;17.50;99.90;;;;;;5028993;28;20208;-70
2021/08/20 06:06:14;;;;;;;6.27;5.77;;;17.60;99.90;;;;;;5029226;28;20322;-70
2021/08/20 06:08:41;;;;;;;6.60;6.10;;;17.70;99.90;;;;;;5029042;28;20671;-70
2021/08/20 06:11:07;;;;;;;6.60;5.90;;;17.70;99.90;;;;;;5028847;28;20580;-70
2021/08/20 06:13:34;;;;;;;8.10;7.40;;;17.70;99.90;;;;;;5029037;28;20212;-70
2021/08/20 06:16:01;;;;;;;7.90;7.23;;;17.70;99.90;;;;;;5029066;28;20224;-69
2021/08/20 06:18:29;;;;;;;8.60;7.73;;;17.60;99.90;;;;;;5028715;28;20565;-70
2021/08/20 06:20:55;;;;;;;7.73;7.03;;;17.50;99.90;;;;;;5028947;28;20208;-70
2021/08/20 06:23:22;;;;;;;8.40;7.60;;;17.60;99.90;;;;;;5028757;28;20232;-70
2021/08/20 06:25:48;;;;;;;8.37;7.67;;;17.60;99.90;;;;;;5028774;28;20213;-69
2021/08/20 06:28:15;;;;;;;7.73;6.93;;;17.60;99.90;;;;;;5028574;28;20287;-69
2021/08/20 06:30:46;;;;;;;8.23;7.43;;;17.60;99.90;;;;;;5028423;28;20300;-70
2021/08/20 06:33:13;;;;;;;7.80;7.17;;;17.70;99.90;;;;;;5028723;28;20197;-70
2021/08/20 06:35:41;;;;;;;8.03;7.23;;;17.80;99.90;;;;;;5028496;28;20758;-70
2021/08/20 06:38:08;;;;;;;9.70;8.80;;;17.90;99.90;;;;;;5028522;28;20228;-70
2021/08/20 06:40:35;;;;;;;10.87;9.80;;;17.80;99.90;;;;;;5028512;28;20619;-70
2021/08/20 06:43:01;;;;;;;11.13;10.00;;;17.90;99.90;;;;;;5028694;28;20205;-70
2021/08/20 06:45:28;;;;;;;11.93;10.77;;;18.00;99.90;;;;;;5028321;28;20236;-70
2021/08/20 06:47:54;;;;;;;13.63;12.23;;;18.00;99.90;;;;;;5028408;28;20229;-70
2021/08/20 06:50:21;;;;;;;13.50;12.30;;;17.90;99.90;;;;;;5028123;28;20244;-70
2021/08/20 06:52:49;;;;;;;16.80;13.37;;;17.80;99.90;;;;;;5028557;28;20234;-70
2021/08/20 06:55:16;;;;;;;14.93;13.43;;;17.80;99.90;;;;;;5028571;28;20213;-70
2021/08/20 06:57:42;;;;;;;17.57;15.07;;;17.80;99.90;;;;;;5028036;28;21065;-69
2021/08/20 07:00:10;;;;;;;17.17;14.63;;;17.80;99.90;;;;;;5027842;28;20240;-69
2021/08/20 07:02:43;;;;;;;18.43;16.50;;;17.80;99.90;;;;;;5028009;28;20611;-68
2021/08/20 07:05:14;;;;;;;18.07;16.23;;;17.70;99.90;;;;;;5028256;28;20205;-69
2021/08/20 07:07:42;;;;;;;19.80;17.17;;;17.70;99.90;;;;;;5028371;28;20237;-69
2021/08/20 07:10:12;;;;;;;18.50;16.53;;;17.80;99.90;;;;;;5028515;28;20428;-71
2021/08/20 07:12:43;;;;;;;19.63;17.10;;;17.70;99.90;;;;;;5028260;28;20212;-71
2021/08/20 07:15:12;;;;;;;19.63;17.53;;;17.70;99.90;;;;;;5032499;28;20308;-71
2021/08/20 07:17:40;;;;;;;20.27;18.07;;;17.60;99.90;;;;;;5032262;28;20286;-71
2021/08/20 07:20:09;;;;;;;22.47;19.60;;;17.60;99.90;;;;;;5032368;28;20204;-72
2021/08/20 07:22:39;;;;;;;21.17;18.97;;;17.60;99.90;;;;;;5032213;28;20298;-70
2021/08/20 07:25:06;;;;;;;24.37;20.83;;;17.70;99.90;;;;;;5032519;28;20212;-71
2021/08/20 07:27:34;;;;;;;24.13;21.63;;;17.60;99.90;;;;;;5032277;28;20209;-70
2021/08/20 07:30:01;;;;;;;25.13;21.50;;;17.40;99.90;;;;;;5031981;28;20729;-70
2021/08/20 07:32:27;;;;;;;26.97;24.07;;;17.30;99.90;;;;;;5032024;28;20219;-70
2021/08/20 07:34:54;;;;;;;16.87;14.57;;;17.20;99.90;;;;;;5031906;28;20213;-70
2021/08/20 07:37:20;;;;;;;14.70;13.20;;;16.80;99.90;;;;;;5031952;28;20253;-72
2021/08/20 07:39:47;;;;;;;17.13;14.77;;;16.60;99.90;;;;;;5031942;28;20337;-71
2021/08/20 07:42:14;;;;;;;17.60;15.73;;;16.50;99.90;;;;;;5032097;28;20270;-71
2021/08/20 07:44:42;;;;;;;16.70;13.40;;;16.30;99.90;;;;;;5031907;28;20236;-70
2021/08/20 07:47:08;;;;;;;16.83;13.00;;;16.30;99.90;;;;;;5031673;28;20256;-71
2021/08/20 07:49:35;;;;;;;14.63;13.23;;;16.20;99.90;;;;;;5031326;28;20570;-71
2021/08/20 07:52:02;;;;;;;13.50;11.77;;;16.20;99.90;;;;;;5031829;28;20201;-71
2021/08/20 07:54:29;;;;;;;14.57;12.17;;;16.20;99.90;;;;;;5031181;28;20671;-71
2021/08/20 07:56:56;;;;;;;14.00;12.50;;;16.20;99.90;;;;;;5031200;28;20954;-70
2021/08/20 07:59:22;;;;;;;14.57;11.87;;;16.30;99.90;;;;;;5031223;28;20302;-69
2021/08/20 08:01:50;;;;;;;13.07;11.77;;;16.30;99.90;;;;;;5031481;28;20213;-70
2021/08/20 08:04:17;;;;;;;14.20;12.10;;;16.30;99.90;;;;;;5030935;28;20721;-69
2021/08/20 08:06:44;;;;;;;12.30;11.00;;;16.40;99.90;;;;;;5031385;28;20212;-69
2021/08/20 08:09:10;;;;;;;13.43;11.77;;;16.40;99.90;;;;;;5031154;28;20243;-69
2021/08/20 08:11:37;;;;;;;12.50;11.23;;;16.50;99.90;;;;;;5031194;28;20352;-70
2021/08/20 08:14:06;;;;;;;11.17;10.17;;;16.40;99.90;;;;;;5031213;28;20205;-69
2021/08/20 08:16:34;;;;;;;12.30;10.97;;;16.50;99.90;;;;;;5031261;28;20300;-71
2021/08/20 08:19:03;;;;;;;12.17;10.87;;;16.50;99.90;;;;;;5033315;28;20216;-70
2021/08/20 08:21:30;;;;;;;12.03;10.77;;;16.50;99.90;;;;;;5041402;28;20724;-69
2021/08/20 08:23:58;;;;;;;12.57;11.47;;;16.60;99.90;;;;;;5041735;28;20216;-69
2021/08/20 08:26:25;;;;;;;11.77;10.70;;;16.60;99.90;;;;;;5039614;28;20201;-69
2021/08/20 08:28:53;;;;;;;12.80;11.53;;;16.60;99.90;;;;;;5039352;28;20278;-70
2021/08/20 08:31:20;;;;;;;13.43;12.13;;;16.60;99.90;;;;;;5040728;28;20716;-69
2021/08/20 08:33:52;;;;;;;12.60;11.30;;;16.60;99.90;;;;;;5040946;28;20286;-70
2021/08/20 08:36:20;;;;;;;16.77;14.23;;;16.50;99.90;;;;;;5038907;28;20207;-69
2021/08/20 08:38:48;;;;;;;16.27;14.60;;;16.50;99.90;;;;;;5040894;28;20256;-71
2021/08/20 08:41:14;;;;;;;22.37;19.90;;;16.50;99.90;;;;;;5041472;28;20254;-71
2021/08/20 08:43:42;;;;;;;13.80;12.10;;;16.60;99.90;;;;;;5039736;28;20619;-71
2021/08/20 08:46:10;;;;;;;13.40;12.13;;;16.60;99.90;;;;;;5037035;28;20201;-71
2021/08/20 08:48:40;;;;;;;16.07;12.67;;;16.70;99.90;;;;;;5026326;28;20216;-71
2021/08/20 08:51:09;;;;;;;14.30;11.40;;;16.70;99.90;;;;;;5026634;28;20205;-71
2021/08/20 08:53:38;;;;;;;13.33;12.00;;;16.80;99.90;;;;;;5026881;28;20240;-70
2021/08/20 08:56:05;;;;;;;13.30;10.53;;;16.80;99.90;;;;;;5027098;28;20204;-70
2021/08/20 08:58:32;;;;;;;11.87;10.87;;;16.80;99.90;;;;;;5026016;28;20228;-70
2021/08/20 09:00:59;;;;;;;11.13;10.20;;;17.00;99.90;;;;;;5035217;28;20204;-70
2021/08/20 09:03:27;;;;;;;9.70;8.90;;;17.00;99.90;;;;;;5038355;28;20204;-70
2021/08/20 09:05:54;;;;;;;12.23;9.27;;;17.00;99.90;;;;;;5046742;28;20208;-70
2021/08/20 09:08:23;;;;;;;9.80;8.23;;;17.00;99.90;;;;;;5046277;28;20303;-70
2021/08/20 09:10:55;;;;;;;8.63;7.90;;;17.00;99.90;;;;;;5046173;28;20216;-71
2021/08/20 09:13:23;;;;;;;8.60;7.80;;;17.00;99.90;;;;;;5040149;28;20252;-72
2021/08/20 09:16:07;;;;;;;12.53;6.93;;;17.00;99.90;;;;;;5046521;28;20728;-72
2021/08/20 09:18:33;;;;;;;8.80;8.07;;;17.10;99.90;;;;;;5036352;28;20263;-72
2021/08/20 09:21:00;;;;;;;5.97;5.47;;;17.10;99.90;;;;;;5026553;28;20284;-72
2021/08/20 09:23:29;;;;;;;6.33;5.70;;;17.20;99.90;;;;;;5025958;28;20229;-72
2021/08/20 09:25:58;;;;;;;6.70;6.00;;;17.20;99.90;;;;;;5027804;28;20212;-72
2021/08/20 09:28:26;;;;;;;13.20;6.47;;;17.30;99.90;;;;;;5040143;28;20209;-72
2021/08/20 09:31:08;;;;;;;5.10;4.70;;;17.40;99.90;;;;;;5026042;28;20278;-72
2021/08/20 09:33:37;;;;;;;4.87;4.47;;;17.40;99.90;;;;;;5025488;28;20200;-72
2021/08/20 09:36:06;;;;;;;4.97;4.17;;;17.30;99.90;;;;;;5025584;28;20212;-72
2021/08/20 09:38:35;;;;;;;4.17;3.87;;;17.30;99.90;;;;;;5025069;28;20256;-72
2021/08/20 09:41:06;;;;;;;4.10;3.80;;;17.30;99.90;;;;;;5025989;28;20212;-71
2021/08/20 09:43:34;;;;;;;8.40;3.73;;;17.30;99.90;;;;;;5025714;28;20193;-71
2021/08/20 09:46:05;;;;;;;4.20;3.90;;;17.40;99.90;;;;;;5025920;28;20231;-72
2021/08/20 09:48:50;;;;;;;3.93;3.23;;;17.60;99.90;;;;;;5025752;28;20256;-72
2021/08/20 09:51:37;;;;;;;3.40;3.10;;;17.80;99.90;;;;;;5025443;28;20911;-72
2021/08/20 09:54:05;;;;;;;3.27;3.07;;;17.90;99.90;;;;;;5025896;28;20209;-72
2021/08/20 09:56:34;;;;;;;3.70;3.50;;;18.10;99.90;;;;;;5025318;28;20729;-73
2021/08/20 09:59:03;;;;;;;4.00;3.57;;;18.30;99.90;;;;;;5025269;28;20248;-72
2021/08/20 10:01:32;;;;;;;4.70;4.30;;;18.50;99.90;;;;;;5024783;28;20217;-72
2021/08/20 10:04:00;;;;;;;4.07;3.70;;;18.40;99.90;;;;;;5025412;28;20209;-72
2021/08/20 10:06:29;;;;;;;5.00;4.70;;;18.50;99.90;;;;;;5025335;28;20245;-72
2021/08/20 10:08:58;;;;;;;4.10;3.80;;;18.70;99.90;;;;;;5025289;28;20262;-72
2021/08/20 10:11:28;;;;;;;5.00;4.60;;;18.80;99.90;;;;;;5024761;28;20510;-73
2021/08/20 10:14:00;;;;;;;5.33;5.00;;;19.00;99.90;;;;;;5025143;28;20248;-73
2021/08/20 10:16:27;;;;;;;5.73;4.80;;;19.00;99.90;;;;;;5024971;28;20667;-73
2021/08/20 10:18:54;;;;;;;5.97;5.40;;;19.20;99.90;;;;;;5024953;28;20286;-73
2021/08/20 10:21:21;;;;;;;6.93;6.17;;;19.40;99.90;;;;;;5025166;28;20236;-73
2021/08/20 10:23:49;;;;;;;6.40;6.00;;;19.40;99.90;;;;;;5028775;28;20204;-72
2021/08/20 10:26:16;;;;;;;6.30;5.70;;;19.40;99.90;;;;;;5033750;28;20204;-72
2021/08/20 10:28:44;;;;;;;7.13;6.43;;;19.60;99.90;;;;;;5035432;28;20224;-72
2021/08/20 10:31:14;;;;;;;6.33;5.83;;;19.50;99.90;;;;;;5034615;28;20251;-72
2021/08/20 10:33:41;;;;;;;6.27;5.70;;;19.60;99.90;;;;;;5032614;28;20725;-72
2021/08/20 10:36:09;;;;;;;6.20;5.63;;;19.40;99.90;;;;;;5034941;28;20207;-71
2021/08/20 10:38:43;;;;;;;6.47;5.80;;;19.40;99.90;;;;;;5032563;28;20200;-73
2021/08/20 10:41:18;;;;;;;6.60;6.00;;;19.30;99.90;;;;;;5024892;28;20244;-73
2021/08/20 10:43:54;;;;;;;8.00;5.73;;;19.40;99.90;;;;;;5027403;28;20702;-74
2021/08/20 10:47:07;;;;;;;6.77;6.17;;;19.40;99.90;;;;;;5037287;28;20562;-72
2021/08/20 10:49:38;;;;;;;6.40;5.90;;;19.40;99.90;;;;;;5046709;28;20192;-73
2021/08/20 10:52:05;;;;;;;6.83;6.33;;;19.50;99.90;;;;;;5047077;28;20196;-72
2021/08/20 10:55:10;;;;;;;7.27;5.80;;;19.50;99.90;;;;;;5046828;28;20227;-73
2021/08/20 10:58:06;;;;;;;6.30;5.43;;;19.40;99.90;;;;;;5046634;28;20204;-72
2021/08/20 11:00:34;;;;;;;5.70;5.27;;;19.50;99.90;;;;;;5041271;28;20240;-72
2021/08/20 11:03:02;;;;;;;5.27;4.97;;;19.70;99.90;;;;;;5041142;28;20208;-71
2021/08/20 11:05:54;;;;;;;6.13;5.53;;;20.00;99.90;;;;;;5037958;28;20605;-72
2021/08/20 11:08:39;;;;;;;6.33;5.77;;;20.40;99.90;;;;;;5030497;28;20225;-72
2021/08/20 11:11:27;;;;;;;5.57;5.00;;;20.30;99.90;;;;;;5039272;28;20192;-72
2021/08/20 11:14:25;;;;;;;5.93;5.37;;;20.50;99.90;;;;;;5044872;28;20637;-72
2021/08/20 11:16:52;;;;;;;7.47;5.53;;;20.50;99.90;;;;;;5048117;28;20549;-72
2021/08/20 11:19:48;;;;;;;7.50;4.53;;;20.50;99.90;;;;;;5047766;28;20309;-73
2021/08/20 11:22:20;;;;;;;5.77;4.90;;;20.40;99.90;;;;;;5045209;28;20247;-72
2021/08/20 11:25:25;;;;;;;6.97;5.20;;;20.30;99.90;;;;;;5048138;28;20290;-72
2021/08/20 11:28:05;;;;;;;5.57;5.00;;;20.30;99.90;;;;;;5036942;28;21108;-72
2021/08/20 11:30:36;;;;;;;8.73;5.50;;;20.10;99.90;;;;;;5025412;28;20217;-72
2021/08/20 11:33:23;;;;;;;7.10;6.50;;;20.00;99.90;;;;;;5031569;28;20551;-74
2021/08/20 11:36:00;;;;;;;7.13;6.53;;;19.80;99.90;;;;;;5044359;28;20238;-74
2021/08/20 11:38:33;;;;;;;6.47;5.87;;;19.60;99.90;;;;;;5040944;28;20197;-72
2021/08/20 11:41:05;;;;;;;7.53;5.90;;;19.50;99.90;;;;;;5023043;28;20578;-72
2021/08/20 11:43:35;;;;;;;6.43;5.97;;;19.50;99.90;;;;;;5023641;28;20228;-72
2021/08/20 11:46:05;;;;;;;7.30;6.70;;;19.50;99.90;;;;;;5024607;28;20275;-72
2021/08/20 11:48:41;;;;;;;6.40;5.90;;;19.40;99.90;;;;;;5023995;28;20220;-72
2021/08/20 11:51:08;;;;;;;7.53;6.67;;;19.40;99.90;;;;;;5024590;28;20209;-72
2021/08/20 11:53:37;;;;;;;7.97;7.07;;;19.40;99.90;;;;;;5024392;28;20217;-72
2021/08/20 11:56:09;;;;;;;7.77;6.87;;;19.30;99.90;;;;;;5024516;28;20219;-72
2021/08/20 11:58:36;;;;;;;7.83;7.10;;;19.30;99.90;;;;;;5023685;28;20582;-72
2021/08/20 12:01:04;;;;;;;6.60;6.10;;;19.20;99.90;;;;;;5025620;28;20232;-72
2021/08/20 12:03:31;;;;;;;6.80;6.20;;;19.30;99.90;;;;;;5027241;28;20255;-72
2021/08/20 12:06:07;;;;;;;8.00;7.30;;;19.30;99.90;;;;;;5027429;28;20205;-72
2021/08/20 12:08:34;;;;;;;7.50;6.90;;;19.30;99.90;;;;;;5027085;28;20193;-72
2021/08/20 12:11:01;;;;;;;10.63;9.60;;;19.30;99.90;;;;;;5038309;28;20212;-72
2021/08/20 12:13:28;;;;;;;9.20;8.27;;;19.30;99.90;;;;;;5047414;28;20266;-72
2021/08/20 12:15:55;;;;;;;11.07;10.07;;;19.30;99.90;;;;;;5047298;28;20258;-72
2021/08/20 12:18:25;;;;;;;11.13;10.10;;;19.50;99.90;;;;;;5046902;28;20212;-73
2021/08/20 12:20:54;;;;;;;11.23;10.33;;;19.90;99.90;;;;;;5046739;28;20240;-72
2021/08/20 12:23:21;;;;;;;11.30;10.27;;;20.10;99.90;;;;;;5047137;28;20228;-72
2021/08/20 12:25:48;;;;;;;11.73;9.87;;;20.20;99.90;;;;;;5047128;28;20240;-72
2021/08/20 12:28:17;;;;;;;10.10;9.07;;;20.30;99.90;;;;;;5046333;28;20192;-72
2021/08/20 12:30:46;;;;;;;11.63;8.67;;;20.60;99.90;;;;;;5035599;28;20201;-72
2021/08/20 12:33:13;;;;;;;8.43;7.63;;;20.60;99.90;;;;;;5035657;28;20201;-72
2021/08/20 12:35:51;;;;;;;8.60;7.80;;;20.50;99.90;;;;;;5040400;28;20429;-74
2021/08/20 12:38:19;;;;;;;7.63;6.97;;;20.70;99.90;;;;;;5046661;28;20732;-74
2021/08/20 12:40:48;;;;;;;7.93;6.53;;;20.90;99.90;;;;;;5047132;28;20305;-73
2021/08/20 12:43:25;;;;;;;7.03;6.37;;;21.00;99.90;;;;;;5036546;28;20217;-73
2021/08/20 12:46:12;;;;;;;6.77;6.27;;;20.90;99.90;;;;;;5027410;28;20200;-73
2021/08/20 12:48:40;;;;;;;7.00;6.40;;;20.90;99.90;;;;;;5026596;28;20201;-73
2021/08/20 12:51:10;;;;;;;7.37;5.70;;;20.80;99.90;;;;;;5026838;28;20361;-73